To NAV CANADA Home Page Login to a new session Search on AWWS site Feedback and Comments Disclaimer Vers la page française équivalente Tips FAQ What's new on the site To the Forecasts and Observations / NOTAM section To "File a Flight Plan" website Publications and other links Update of the User's profile FIC Telephone Numbers My Weather Data Folder Route Weather Data Regional Weather Data Local Weather Data To the Forecasts and Observations / NOTAM section
Request Generated 03/23/2017 at 00:20:55 UTC . Weather information available at that time is displayed.

METAR/TAF

FREDERICTON INTL/NB    (show WxCam)

SPECI CYFC 230004Z AUTO 32026G36KT 6SM -SN OVC029 M08/M13 A2983 RMK
SLP106=
METAR CYFC 230000Z AUTO 32029G35KT 4SM -SN OVC029 M08/M13 A2983 RMK
SLP105=
SPECI CYFC 222326Z AUTO 32024G35KT 5SM -SN OVC042 M07/M12 A2980 RMK
PRESRR SLP096=
METAR CYFC 222300Z AUTO 32025G35KT 9SM -SN OVC046 M06/M13 A2978 RMK
SLP088=
METAR CYFC 222200Z AUTO 31024G32KT 9SM -SN OVC047 M05/M12 A2974 RMK
PRESRR SLP073=

TAF CYFC 222338Z 2300/2312 32022G32KT P6SM -SN OVC040 TEMPO 2300/2302
2SM -SN OVC020
FM230200 32015G25KT P6SM OVC030 TEMPO 2302/2305 5SM -SN BLSN
FM230500 32015G25KT P6SM BKN030 BKN070
FM230800 32015G25KT P6SM SCT070
RMK FCST BASED ON AUTO OBS. NXT FCST BY 230600Z=
Your time UTC time
Weather data provided by Environment Canada and NAV CANADA